sensor_id;sensor_type;location;lat;lon;timestamp;temperature;humidity
56725;DHT22;42608;52.776;6.968;2022-12-29T00:01:07;10.30;99.90
56725;DHT22;42608;52.776;6.968;2022-12-29T00:03:33;10.30;99.90
56725;DHT22;42608;52.776;6.968;2022-12-29T00:05:58;10.30;99.90
56725;DHT22;42608;52.776;6.968;2022-12-29T00:08:24;10.40;99.90
56725;DHT22;42608;52.776;6.968;2022-12-29T00:11:23;10.40;99.90
56725;DHT22;42608;52.776;6.968;2022-12-29T00:13:50;10.50;99.90
56725;DHT22;42608;52.776;6.968;2022-12-29T00:16:34;10.60;99.90
56725;DHT22;42608;52.776;6.968;2022-12-29T00:19:00;10.60;99.90
56725;DHT22;42608;52.776;6.968;2022-12-29T00:21:25;10.60;99.90
56725;DHT22;42608;52.776;6.968;2022-12-29T00:24:17;10.60;99.90
56725;DHT22;42608;52.776;6.968;2022-12-29T00:29:46;10.60;99.90
56725;DHT22;42608;52.776;6.968;2022-12-29T00:32:30;10.60;99.90
56725;DHT22;42608;52.776;6.968;2022-12-29T00:35:18;10.60;99.90
56725;DHT22;42608;52.776;6.968;2022-12-29T00:37:45;10.60;99.90
56725;DHT22;42608;52.776;6.968;2022-12-29T00:40:31;10.60;99.90
56725;DHT22;42608;52.776;6.968;2022-12-29T00:43:15;10.60;99.90
56725;DHT22;42608;52.776;6.968;2022-12-29T00:46:00;10.60;99.90
56725;DHT22;42608;52.776;6.968;2022-12-29T00:48:26;10.50;99.90
56725;DHT22;42608;52.776;6.968;2022-12-29T00:51:10;10.60;99.90
56725;DHT22;42608;52.776;6.968;2022-12-29T00:53:35;10.60;99.90
56725;DHT22;42608;52.776;6.968;2022-12-29T00:56:01;10.60;99.90
56725;DHT22;42608;52.776;6.968;2022-12-29T00:58:27;10.60;99.90
56725;DHT22;42608;52.776;6.968;2022-12-29T01:01:00;10.60;99.90
56725;DHT22;42608;52.776;6.968;2022-12-29T01:03:25;10.70;99.90
56725;DHT22;42608;52.776;6.968;2022-12-29T01:05:51;10.70;99.90
56725;DHT22;42608;52.776;6.968;2022-12-29T01:08:16;10.70;99.90
56725;DHT22;42608;52.776;6.968;2022-12-29T01:10:42;10.70;99.90
56725;DHT22;42608;52.776;6.968;2022-12-29T01:13:08;10.70;99.90
56725;DHT22;42608;52.776;6.968;2022-12-29T01:15:33;10.70;99.90
56725;DHT22;42608;52.776;6.968;2022-12-29T01:17:59;10.80;99.90
56725;DHT22;42608;52.776;6.968;2022-12-29T01:20:24;10.80;99.90
56725;DHT22;42608;52.776;6.968;2022-12-29T01:22:50;10.90;99.90
56725;DHT22;42608;52.776;6.968;2022-12-29T01:25:15;10.90;99.90
56725;DHT22;42608;52.776;6.968;2022-12-29T01:27:41;10.90;99.90
56725;DHT22;42608;52.776;6.968;2022-12-29T01:30:07;10.90;99.90
56725;DHT22;42608;52.776;6.968;2022-12-29T01:32:32;10.90;99.90
56725;DHT22;42608;52.776;6.968;2022-12-29T01:34:58;10.90;99.90
56725;DHT22;42608;52.776;6.968;2022-12-29T01:37:24;10.90;99.90
56725;DHT22;42608;52.776;6.968;2022-12-29T01:39:49;11.00;99.90
56725;DHT22;42608;52.776;6.968;2022-12-29T01:42:19;10.90;99.90
56725;DHT22;42608;52.776;6.968;2022-12-29T01:47:25;10.90;99.90
56725;DHT22;42608;52.776;6.968;2022-12-29T01:49:52;11.00;99.90
56725;DHT22;42608;52.776;6.968;2022-12-29T01:52:19;11.00;99.90
56725;DHT22;42608;52.776;6.968;2022-12-29T01:54:46;11.00;99.90
56725;DHT22;42608;52.776;6.968;2022-12-29T01:57:17;11.00;99.90
56725;DHT22;42608;52.776;6.968;2022-12-29T01:59:46;11.00;99.90
56725;DHT22;42608;52.776;6.968;2022-12-29T02:02:14;11.10;99.90
56725;DHT22;42608;52.776;6.968;2022-12-29T02:04:40;11.10;99.90
56725;DHT22;42608;52.776;6.968;2022-12-29T02:07:19;11.10;99.90
56725;DHT22;42608;52.776;6.968;2022-12-29T02:09:49;11.10;99.90
56725;DHT22;42608;52.776;6.968;2022-12-29T02:12:16;11.20;99.90
56725;DHT22;42608;52.776;6.968;2022-12-29T02:14:41;11.10;99.90
56725;DHT22;42608;52.776;6.968;2022-12-29T02:24:57;11.10;99.90
56725;DHT22;42608;52.776;6.968;2022-12-29T02:27:36;11.10;99.90
56725;DHT22;42608;52.776;6.968;2022-12-29T02:30:08;11.10;99.90
56725;DHT22;42608;52.776;6.968;2022-12-29T02:35:07;11.10;99.90
56725;DHT22;42608;52.776;6.968;2022-12-29T02:37:38;11.10;99.90
56725;DHT22;42608;52.776;6.968;2022-12-29T02:40:22;11.10;99.90
56725;DHT22;42608;52.776;6.968;2022-12-29T02:48:09;11.10;99.90
56725;DHT22;42608;52.776;6.968;2022-12-29T02:50:37;11.00;99.90
56725;DHT22;42608;52.776;6.968;2022-12-29T02:53:07;10.90;99.90
56725;DHT22;42608;52.776;6.968;2022-12-29T02:55:34;10.90;99.90
56725;DHT22;42608;52.776;6.968;2022-12-29T02:58:16;10.90;99.90
56725;DHT22;42608;52.776;6.968;2022-12-29T03:00:59;10.80;99.90
56725;DHT22;42608;52.776;6.968;2022-12-29T03:06:22;10.80;99.90
56725;DHT22;42608;52.776;6.968;2022-12-29T03:08:55;10.70;99.90
56725;DHT22;42608;52.776;6.968;2022-12-29T03:11:26;10.70;99.90
56725;DHT22;42608;52.776;6.968;2022-12-29T03:14:17;10.60;99.90
56725;DHT22;42608;52.776;6.968;2022-12-29T03:17:07;10.60;99.90
56725;DHT22;42608;52.776;6.968;2022-12-29T03:19:36;10.60;99.90
56725;DHT22;42608;52.776;6.968;2022-12-29T03:24:51;10.60;99.90
56725;DHT22;42608;52.776;6.968;2022-12-29T03:27:25;10.50;99.90
56725;DHT22;42608;52.776;6.968;2022-12-29T03:29:54;10.50;99.90
56725;DHT22;42608;52.776;6.968;2022-12-29T03:32:25;10.50;99.90
56725;DHT22;42608;52.776;6.968;2022-12-29T03:34:52;10.50;99.90
56725;DHT22;42608;52.776;6.968;2022-12-29T03:37:21;10.50;99.90
56725;DHT22;42608;52.776;6.968;2022-12-29T03:39:47;10.50;99.90
56725;DHT22;42608;52.776;6.968;2022-12-29T03:42:14;10.50;99.90
56725;DHT22;42608;52.776;6.968;2022-12-29T03:44:41;10.60;99.90
56725;DHT22;42608;52.776;6.968;2022-12-29T03:47:07;10.60;99.90
56725;DHT22;42608;52.776;6.968;2022-12-29T03:49:33;10.60;99.90
56725;DHT22;42608;52.776;6.968;2022-12-29T03:51:59;10.60;99.90
56725;DHT22;42608;52.776;6.968;2022-12-29T03:54:24;10.60;99.90
56725;DHT22;42608;52.776;6.968;2022-12-29T03:56:50;10.60;99.90
56725;DHT22;42608;52.776;6.968;2022-12-29T03:59:16;10.60;99.90
56725;DHT22;42608;52.776;6.968;2022-12-29T04:01:41;10.60;99.90
56725;DHT22;42608;52.776;6.968;2022-12-29T04:04:07;10.50;99.90
56725;DHT22;42608;52.776;6.968;2022-12-29T04:06:32;10.60;99.90
56725;DHT22;42608;52.776;6.968;2022-12-29T04:08:58;10.70;99.90
56725;DHT22;42608;52.776;6.968;2022-12-29T04:11:23;10.70;99.90
56725;DHT22;42608;52.776;6.968;2022-12-29T04:13:49;10.70;99.90
56725;DHT22;42608;52.776;6.968;2022-12-29T04:16:14;10.70;99.90
56725;DHT22;42608;52.776;6.968;2022-12-29T04:18:40;10.70;99.90
56725;DHT22;42608;52.776;6.968;2022-12-29T04:21:06;10.70;99.90
56725;DHT22;42608;52.776;6.968;2022-12-29T04:23:32;10.70;99.90
56725;DHT22;42608;52.776;6.968;2022-12-29T04:25:58;10.70;99.90
56725;DHT22;42608;52.776;6.968;2022-12-29T04:28:24;10.70;99.90
56725;DHT22;42608;52.776;6.968;2022-12-29T04:30:49;10.70;99.90
56725;DHT22;42608;52.776;6.968;2022-12-29T04:33:15;10.70;99.90
56725;DHT22;42608;52.776;6.968;2022-12-29T04:35:41;10.70;99.90
56725;DHT22;42608;52.776;6.968;2022-12-29T04:38:07;10.70;99.90
56725;DHT22;42608;52.776;6.968;2022-12-29T04:40:33;10.70;99.90
56725;DHT22;42608;52.776;6.968;2022-12-29T04:42:58;10.70;99.90
56725;DHT22;42608;52.776;6.968;2022-12-29T04:45:24;10.70;99.90
56725;DHT22;42608;52.776;6.968;2022-12-29T04:47:49;10.80;99.90
56725;DHT22;42608;52.776;6.968;2022-12-29T04:50:15;10.80;99.90
56725;DHT22;42608;52.776;6.968;2022-12-29T04:52:41;10.80;99.90
56725;DHT22;42608;52.776;6.968;2022-12-29T04:55:06;10.70;99.90
56725;DHT22;42608;52.776;6.968;2022-12-29T04:57:32;10.80;99.90
56725;DHT22;42608;52.776;6.968;2022-12-29T04:59:58;10.80;99.90
56725;DHT22;42608;52.776;6.968;2022-12-29T05:02:23;10.70;99.90
56725;DHT22;42608;52.776;6.968;2022-12-29T05:04:49;10.70;99.90
56725;DHT22;42608;52.776;6.968;2022-12-29T05:07:14;10.70;99.90
56725;DHT22;42608;52.776;6.968;2022-12-29T05:09:40;10.70;99.90
56725;DHT22;42608;52.776;6.968;2022-12-29T05:12:06;10.60;99.90
56725;DHT22;42608;52.776;6.968;2022-12-29T05:14:31;10.60;99.90
56725;DHT22;42608;52.776;6.968;2022-12-29T05:16:57;10.60;99.90
56725;DHT22;42608;52.776;6.968;2022-12-29T05:19:22;10.60;99.90
56725;DHT22;42608;52.776;6.968;2022-12-29T05:21:48;10.60;99.90
56725;DHT22;42608;52.776;6.968;2022-12-29T05:24:13;10.50;99.90
56725;DHT22;42608;52.776;6.968;2022-12-29T05:26:39;10.60;99.90
56725;DHT22;42608;52.776;6.968;2022-12-29T05:29:04;10.60;99.90
56725;DHT22;42608;52.776;6.968;2022-12-29T05:31:30;10.60;99.90
56725;DHT22;42608;52.776;6.968;2022-12-29T05:33:56;10.60;99.90
56725;DHT22;42608;52.776;6.968;2022-12-29T05:36:21;10.60;99.90
56725;DHT22;42608;52.776;6.968;2022-12-29T05:38:47;10.60;99.90
56725;DHT22;42608;52.776;6.968;2022-12-29T05:41:12;10.60;99.90
56725;DHT22;42608;52.776;6.968;2022-12-29T05:43:38;10.60;99.90
56725;DHT22;42608;52.776;6.968;2022-12-29T05:46:03;10.60;99.90
56725;DHT22;42608;52.776;6.968;2022-12-29T05:48:29;10.60;99.90
56725;DHT22;42608;52.776;6.968;2022-12-29T05:50:55;10.50;99.90
56725;DHT22;42608;52.776;6.968;2022-12-29T05:53:20;10.50;99.90
56725;DHT22;42608;52.776;6.968;2022-12-29T05:55:46;10.60;99.90
56725;DHT22;42608;52.776;6.968;2022-12-29T05:58:13;10.60;99.90
56725;DHT22;42608;52.776;6.968;2022-12-29T06:00:39;10.50;99.90
56725;DHT22;42608;52.776;6.968;2022-12-29T06:03:04;10.50;99.90
56725;DHT22;42608;52.776;6.968;2022-12-29T06:05:30;10.50;99.90
56725;DHT22;42608;52.776;6.968;2022-12-29T06:07:55;10.50;99.90
56725;DHT22;42608;52.776;6.968;2022-12-29T06:10:21;10.50;99.90
56725;DHT22;42608;52.776;6.968;2022-12-29T06:12:46;10.50;99.90
56725;DHT22;42608;52.776;6.968;2022-12-29T06:15:12;10.50;99.90
56725;DHT22;42608;52.776;6.968;2022-12-29T06:17:38;10.50;99.90
56725;DHT22;42608;52.776;6.968;2022-12-29T06:20:04;10.50;99.90
56725;DHT22;42608;52.776;6.968;2022-12-29T06:22:30;10.50;99.90
56725;DHT22;42608;52.776;6.968;2022-12-29T06:24:55;10.50;99.90
56725;DHT22;42608;52.776;6.968;2022-12-29T06:27:21;10.50;99.90
56725;DHT22;42608;52.776;6.968;2022-12-29T06:29:47;10.50;99.90
56725;DHT22;42608;52.776;6.968;2022-12-29T06:32:12;10.50;99.90
56725;DHT22;42608;52.776;6.968;2022-12-29T06:34:38;10.50;99.90
56725;DHT22;42608;52.776;6.968;2022-12-29T06:37:03;10.50;99.90
56725;DHT22;42608;52.776;6.968;2022-12-29T06:39:29;10.50;99.90
56725;DHT22;42608;52.776;6.968;2022-12-29T06:41:54;10.40;99.90
56725;DHT22;42608;52.776;6.968;2022-12-29T06:44:20;10.40;99.90
56725;DHT22;42608;52.776;6.968;2022-12-29T06:46:46;10.40;99.90
56725;DHT22;42608;52.776;6.968;2022-12-29T06:49:12;10.40;99.90
56725;DHT22;42608;52.776;6.968;2022-12-29T06:51:38;10.40;99.90
56725;DHT22;42608;52.776;6.968;2022-12-29T06:54:03;10.40;99.90
56725;DHT22;42608;52.776;6.968;2022-12-29T06:56:29;10.40;99.90
56725;DHT22;42608;52.776;6.968;2022-12-29T06:58:54;10.40;99.90
56725;DHT22;42608;52.776;6.968;2022-12-29T07:01:20;10.30;99.90
56725;DHT22;42608;52.776;6.968;2022-12-29T07:03:46;10.40;99.90
56725;DHT22;42608;52.776;6.968;2022-12-29T07:06:11;10.40;99.90
56725;DHT22;42608;52.776;6.968;2022-12-29T07:08:37;10.40;99.90
56725;DHT22;42608;52.776;6.968;2022-12-29T07:11:04;10.30;99.90
56725;DHT22;42608;52.776;6.968;2022-12-29T07:13:29;10.30;99.90
56725;DHT22;42608;52.776;6.968;2022-12-29T07:15:55;10.30;99.90
56725;DHT22;42608;52.776;6.968;2022-12-29T07:18:20;10.30;99.90
56725;DHT22;42608;52.776;6.968;2022-12-29T07:20:46;10.30;99.90
56725;DHT22;42608;52.776;6.968;2022-12-29T07:23:11;10.30;99.90
56725;DHT22;42608;52.776;6.968;2022-12-29T07:25:37;10.20;99.90
56725;DHT22;42608;52.776;6.968;2022-12-29T07:28:03;10.20;99.90
56725;DHT22;42608;52.776;6.968;2022-12-29T07:30:28;10.20;99.90
56725;DHT22;42608;52.776;6.968;2022-12-29T07:32:54;10.10;99.90
56725;DHT22;42608;52.776;6.968;2022-12-29T07:35:19;10.10;99.90
56725;DHT22;42608;52.776;6.968;2022-12-29T07:37:45;10.10;99.90
56725;DHT22;42608;52.776;6.968;2022-12-29T07:40:11;10.10;99.90
56725;DHT22;42608;52.776;6.968;2022-12-29T07:42:38;10.10;99.90
56725;DHT22;42608;52.776;6.968;2022-12-29T07:45:03;10.10;99.90
56725;DHT22;42608;52.776;6.968;2022-12-29T07:47:29;10.00;99.90
56725;DHT22;42608;52.776;6.968;2022-12-29T07:49:55;10.10;99.90
56725;DHT22;42608;52.776;6.968;2022-12-29T07:52:20;10.10;99.90
56725;DHT22;42608;52.776;6.968;2022-12-29T07:54:46;10.00;99.90
56725;DHT22;42608;52.776;6.968;2022-12-29T07:57:11;10.00;99.90
56725;DHT22;42608;52.776;6.968;2022-12-29T07:59:37;10.00;99.90
56725;DHT22;42608;52.776;6.968;2022-12-29T08:02:02;10.00;99.90
56725;DHT22;42608;52.776;6.968;2022-12-29T08:04:28;10.00;99.90
56725;DHT22;42608;52.776;6.968;2022-12-29T08:06:53;10.00;99.90
56725;DHT22;42608;52.776;6.968;2022-12-29T08:09:19;10.00;99.90
56725;DHT22;42608;52.776;6.968;2022-12-29T08:11:45;10.10;99.90
56725;DHT22;42608;52.776;6.968;2022-12-29T08:14:10;10.10;99.90
56725;DHT22;42608;52.776;6.968;2022-12-29T08:16:36;10.00;99.90
56725;DHT22;42608;52.776;6.968;2022-12-29T08:19:01;10.00;99.90
56725;DHT22;42608;52.776;6.968;2022-12-29T08:21:28;10.00;99.90
56725;DHT22;42608;52.776;6.968;2022-12-29T08:23:54;10.00;99.90
56725;DHT22;42608;52.776;6.968;2022-12-29T08:26:20;10.00;99.90
56725;DHT22;42608;52.776;6.968;2022-12-29T08:28:45;10.00;99.90
56725;DHT22;42608;52.776;6.968;2022-12-29T08:31:11;10.00;99.90
56725;DHT22;42608;52.776;6.968;2022-12-29T08:33:36;9.90;99.90
56725;DHT22;42608;52.776;6.968;2022-12-29T08:36:03;9.90;99.90
56725;DHT22;42608;52.776;6.968;2022-12-29T08:38:29;9.90;99.90
56725;DHT22;42608;52.776;6.968;2022-12-29T08:40:55;9.90;99.90
56725;DHT22;42608;52.776;6.968;2022-12-29T08:43:23;9.90;99.90
56725;DHT22;42608;52.776;6.968;2022-12-29T08:45:48;9.90;99.90
56725;DHT22;42608;52.776;6.968;2022-12-29T08:48:14;9.90;99.90
56725;DHT22;42608;52.776;6.968;2022-12-29T08:50:43;9.80;99.90
56725;DHT22;42608;52.776;6.968;2022-12-29T08:53:09;9.90;99.90
56725;DHT22;42608;52.776;6.968;2022-12-29T08:55:35;9.90;99.90
56725;DHT22;42608;52.776;6.968;2022-12-29T08:58:01;9.90;99.90
56725;DHT22;42608;52.776;6.968;2022-12-29T09:00:26;9.80;99.90
56725;DHT22;42608;52.776;6.968;2022-12-29T09:02:52;9.80;99.90
56725;DHT22;42608;52.776;6.968;2022-12-29T09:05:17;9.80;99.90
56725;DHT22;42608;52.776;6.968;2022-12-29T09:07:43;9.80;99.90
56725;DHT22;42608;52.776;6.968;2022-12-29T09:10:08;9.90;99.90
56725;DHT22;42608;52.776;6.968;2022-12-29T09:12:34;9.90;99.90
56725;DHT22;42608;52.776;6.968;2022-12-29T09:15:00;9.80;99.90
56725;DHT22;42608;52.776;6.968;2022-12-29T09:17:25;9.80;99.90
56725;DHT22;42608;52.776;6.968;2022-12-29T09:20:26;9.80;99.90
56725;DHT22;42608;52.776;6.968;2022-12-29T09:22:52;9.80;99.90
56725;DHT22;42608;52.776;6.968;2022-12-29T09:25:17;9.90;99.90
56725;DHT22;42608;52.776;6.968;2022-12-29T09:27:43;9.80;99.90
56725;DHT22;42608;52.776;6.968;2022-12-29T09:30:09;9.90;99.90
56725;DHT22;42608;52.776;6.968;2022-12-29T09:32:35;9.90;99.90
56725;DHT22;42608;52.776;6.968;2022-12-29T09:35:01;9.90;99.90
56725;DHT22;42608;52.776;6.968;2022-12-29T09:37:27;9.90;99.90
56725;DHT22;42608;52.776;6.968;2022-12-29T09:39:52;9.80;99.90
56725;DHT22;42608;52.776;6.968;2022-12-29T09:42:23;9.80;99.90
56725;DHT22;42608;52.776;6.968;2022-12-29T09:47:16;9.80;99.90
56725;DHT22;42608;52.776;6.968;2022-12-29T09:49:49;9.80;99.90
56725;DHT22;42608;52.776;6.968;2022-12-29T09:52:25;9.80;99.90
56725;DHT22;42608;52.776;6.968;2022-12-29T09:55:04;9.80;99.90
56725;DHT22;42608;52.776;6.968;2022-12-29T10:00:05;9.80;99.90
56725;DHT22;42608;52.776;6.968;2022-12-29T10:02:33;9.80;99.90
56725;DHT22;42608;52.776;6.968;2022-12-29T10:05:00;9.80;99.90
56725;DHT22;42608;52.776;6.968;2022-12-29T10:07:41;9.80;99.90
56725;DHT22;42608;52.776;6.968;2022-12-29T10:10:22;9.80;99.90
56725;DHT22;42608;52.776;6.968;2022-12-29T10:13:02;9.90;99.90
56725;DHT22;42608;52.776;6.968;2022-12-29T10:15:52;9.90;99.90
56725;DHT22;42608;52.776;6.968;2022-12-29T10:18:32;10.00;99.90
56725;DHT22;42608;52.776;6.968;2022-12-29T10:21:13;10.00;99.90
56725;DHT22;42608;52.776;6.968;2022-12-29T10:26:17;10.00;99.90
56725;DHT22;42608;52.776;6.968;2022-12-29T10:28:56;10.10;99.90
56725;DHT22;42608;52.776;6.968;2022-12-29T10:31:24;10.20;99.90
56725;DHT22;42608;52.776;6.968;2022-12-29T10:33:55;10.10;99.90
56725;DHT22;42608;52.776;6.968;2022-12-29T10:38:53;10.20;99.90
56725;DHT22;42608;52.776;6.968;2022-12-29T10:41:23;10.20;99.90
56725;DHT22;42608;52.776;6.968;2022-12-29T10:43:51;10.20;99.90
56725;DHT22;42608;52.776;6.968;2022-12-29T10:46:18;10.20;99.90
56725;DHT22;42608;52.776;6.968;2022-12-29T10:48:45;10.10;99.90
56725;DHT22;42608;52.776;6.968;2022-12-29T10:51:16;10.10;99.90
56725;DHT22;42608;52.776;6.968;2022-12-29T10:54:04;10.00;99.90
56725;DHT22;42608;52.776;6.968;2022-12-29T10:56:34;10.00;99.90
56725;DHT22;42608;52.776;6.968;2022-12-29T10:59:19;10.00;99.90
56725;DHT22;42608;52.776;6.968;2022-12-29T11:07:18;9.90;99.90
56725;DHT22;42608;52.776;6.968;2022-12-29T11:09:45;9.90;99.90
56725;DHT22;42608;52.776;6.968;2022-12-29T11:12:18;9.90;99.90
56725;DHT22;42608;52.776;6.968;2022-12-29T11:14:44;9.80;99.90
56725;DHT22;42608;52.776;6.968;2022-12-29T11:17:14;9.80;99.90
56725;DHT22;42608;52.776;6.968;2022-12-29T11:19:40;9.70;99.90
56725;DHT22;42608;52.776;6.968;2022-12-29T11:22:21;9.70;99.90
56725;DHT22;42608;52.776;6.968;2022-12-29T11:24:48;9.60;99.90
56725;DHT22;42608;52.776;6.968;2022-12-29T11:27:15;9.60;99.90
56725;DHT22;42608;52.776;6.968;2022-12-29T11:29:42;9.60;99.90
56725;DHT22;42608;52.776;6.968;2022-12-29T11:34:42;9.60;99.90
56725;DHT22;42608;52.776;6.968;2022-12-29T11:37:12;9.60;99.90
56725;DHT22;42608;52.776;6.968;2022-12-29T11:39:52;9.50;99.90
56725;DHT22;42608;52.776;6.968;2022-12-29T11:42:23;9.40;99.90
56725;DHT22;42608;52.776;6.968;2022-12-29T11:44:49;9.50;99.90
56725;DHT22;42608;52.776;6.968;2022-12-29T11:47:30;9.50;99.90
56725;DHT22;42608;52.776;6.968;2022-12-29T11:49:58;9.40;99.90
56725;DHT22;42608;52.776;6.968;2022-12-29T11:52:27;9.40;99.90
56725;DHT22;42608;52.776;6.968;2022-12-29T11:54:53;9.40;99.90
56725;DHT22;42608;52.776;6.968;2022-12-29T11:57:20;9.40;99.90
56725;DHT22;42608;52.776;6.968;2022-12-29T11:59:53;9.40;99.90
56725;DHT22;42608;52.776;6.968;2022-12-29T12:02:38;9.40;99.90
56725;DHT22;42608;52.776;6.968;2022-12-29T12:05:14;9.40;99.90
56725;DHT22;42608;52.776;6.968;2022-12-29T12:07:44;9.40;99.90
56725;DHT22;42608;52.776;6.968;2022-12-29T12:10:12;9.50;99.90
56725;DHT22;42608;52.776;6.968;2022-12-29T12:15:46;9.50;99.90
56725;DHT22;42608;52.776;6.968;2022-12-29T12:18:30;9.50;99.90
56725;DHT22;42608;52.776;6.968;2022-12-29T12:20:58;9.50;99.90
56725;DHT22;42608;52.776;6.968;2022-12-29T12:26:09;9.60;99.90
56725;DHT22;42608;52.776;6.968;2022-12-29T12:28:48;9.70;99.90
56725;DHT22;42608;52.776;6.968;2022-12-29T12:31:17;9.70;99.90
56725;DHT22;42608;52.776;6.968;2022-12-29T12:33:44;9.80;99.90
56725;DHT22;42608;52.776;6.968;2022-12-29T12:39:31;9.90;99.90
56725;DHT22;42608;52.776;6.968;2022-12-29T12:41:48;9.90;99.90
56725;DHT22;42608;52.776;6.968;2022-12-29T12:44:27;9.90;99.90
56725;DHT22;42608;52.776;6.968;2022-12-29T12:54:25;9.80;99.90
56725;DHT22;42608;52.776;6.968;2022-12-29T12:57:01;9.80;99.90
56725;DHT22;42608;52.776;6.968;2022-12-29T13:15:11;9.90;99.90
56725;DHT22;42608;52.776;6.968;2022-12-29T13:17:42;9.80;99.90
56725;DHT22;42608;52.776;6.968;2022-12-29T13:25:10;9.80;99.90
56725;DHT22;42608;52.776;6.968;2022-12-29T13:30:15;9.80;99.90
56725;DHT22;42608;52.776;6.968;2022-12-29T13:35:43;9.80;99.90
56725;DHT22;42608;52.776;6.968;2022-12-29T13:40:43;9.70;99.90
56725;DHT22;42608;52.776;6.968;2022-12-29T13:43:10;9.70;99.90
56725;DHT22;42608;52.776;6.968;2022-12-29T13:45:36;9.70;99.90
56725;DHT22;42608;52.776;6.968;2022-12-29T13:48:03;9.70;99.90
56725;DHT22;42608;52.776;6.968;2022-12-29T13:50:31;9.70;99.90
56725;DHT22;42608;52.776;6.968;2022-12-29T13:55:39;9.70;99.90
56725;DHT22;42608;52.776;6.968;2022-12-29T14:04:40;9.50;99.90
56725;DHT22;42608;52.776;6.968;2022-12-29T14:06:31;9.50;99.90
56725;DHT22;42608;52.776;6.968;2022-12-29T14:08:59;9.40;99.90
56725;DHT22;42608;52.776;6.968;2022-12-29T14:11:32;9.40;99.90
56725;DHT22;42608;52.776;6.968;2022-12-29T14:13:57;9.40;99.90
56725;DHT22;42608;52.776;6.968;2022-12-29T14:16:25;9.40;99.90
56725;DHT22;42608;52.776;6.968;2022-12-29T14:18:51;9.40;99.90
56725;DHT22;42608;52.776;6.968;2022-12-29T14:21:20;9.30;99.90
56725;DHT22;42608;52.776;6.968;2022-12-29T14:23:48;9.40;99.90
56725;DHT22;42608;52.776;6.968;2022-12-29T14:28:47;9.40;99.90
56725;DHT22;42608;52.776;6.968;2022-12-29T14:33:39;9.40;99.90
56725;DHT22;42608;52.776;6.968;2022-12-29T14:36:25;9.40;99.90
56725;DHT22;42608;52.776;6.968;2022-12-29T14:38:52;9.40;99.90
56725;DHT22;42608;52.776;6.968;2022-12-29T14:43:53;9.30;99.90
56725;DHT22;42608;52.776;6.968;2022-12-29T14:46:19;9.40;99.90
56725;DHT22;42608;52.776;6.968;2022-12-29T14:48:45;9.30;99.90
56725;DHT22;42608;52.776;6.968;2022-12-29T14:51:17;9.40;99.90
56725;DHT22;42608;52.776;6.968;2022-12-29T14:53:46;9.40;99.90
56725;DHT22;42608;52.776;6.968;2022-12-29T14:56:12;9.40;99.90
56725;DHT22;42608;52.776;6.968;2022-12-29T14:58:42;9.40;99.90
56725;DHT22;42608;52.776;6.968;2022-12-29T15:01:15;9.40;99.90
56725;DHT22;42608;52.776;6.968;2022-12-29T15:03:47;9.40;99.90
56725;DHT22;42608;52.776;6.968;2022-12-29T15:06:15;9.40;99.90
56725;DHT22;42608;52.776;6.968;2022-12-29T15:09:00;9.40;99.90
56725;DHT22;42608;52.776;6.968;2022-12-29T15:14:03;9.40;99.90
56725;DHT22;42608;52.776;6.968;2022-12-29T15:16:48;9.40;99.90
56725;DHT22;42608;52.776;6.968;2022-12-29T15:19:21;9.40;99.90
56725;DHT22;42608;52.776;6.968;2022-12-29T15:21:47;9.40;99.90
56725;DHT22;42608;52.776;6.968;2022-12-29T15:24:12;9.40;99.90
56725;DHT22;42608;52.776;6.968;2022-12-29T15:26:44;9.40;99.90
56725;DHT22;42608;52.776;6.968;2022-12-29T15:31:55;9.30;99.90
56725;DHT22;42608;52.776;6.968;2022-12-29T15:34:21;9.30;99.90
56725;DHT22;42608;52.776;6.968;2022-12-29T15:36:47;9.40;99.90
56725;DHT22;42608;52.776;6.968;2022-12-29T15:39:18;9.30;99.90
56725;DHT22;42608;52.776;6.968;2022-12-29T15:41:50;9.30;99.90
56725;DHT22;42608;52.776;6.968;2022-12-29T15:44:38;9.30;99.90
56725;DHT22;42608;52.776;6.968;2022-12-29T15:47:05;9.30;99.90
56725;DHT22;42608;52.776;6.968;2022-12-29T15:49:31;9.30;99.90
56725;DHT22;42608;52.776;6.968;2022-12-29T15:51:57;9.30;99.90
56725;DHT22;42608;52.776;6.968;2022-12-29T15:54:23;9.20;99.90
56725;DHT22;42608;52.776;6.968;2022-12-29T15:56:49;9.20;99.90
56725;DHT22;42608;52.776;6.968;2022-12-29T15:59:31;9.20;99.90
56725;DHT22;42608;52.776;6.968;2022-12-29T16:01:58;9.20;99.90
56725;DHT22;42608;52.776;6.968;2022-12-29T16:04:27;9.10;99.90
56725;DHT22;42608;52.776;6.968;2022-12-29T16:06:57;9.10;99.90
56725;DHT22;42608;52.776;6.968;2022-12-29T16:11:56;9.10;99.90
56725;DHT22;42608;52.776;6.968;2022-12-29T16:14:24;9.10;99.90
56725;DHT22;42608;52.776;6.968;2022-12-29T16:16:53;9.10;99.90
56725;DHT22;42608;52.776;6.968;2022-12-29T16:19:24;9.10;99.90
56725;DHT22;42608;52.776;6.968;2022-12-29T16:21:51;9.10;99.90
56725;DHT22;42608;52.776;6.968;2022-12-29T16:24:21;9.10;99.90
56725;DHT22;42608;52.776;6.968;2022-12-29T16:26:49;9.10;99.90
56725;DHT22;42608;52.776;6.968;2022-12-29T16:29:15;9.10;99.90
56725;DHT22;42608;52.776;6.968;2022-12-29T16:34:21;9.10;99.90
56725;DHT22;42608;52.776;6.968;2022-12-29T16:36:55;9.00;99.90
56725;DHT22;42608;52.776;6.968;2022-12-29T16:39:25;9.00;99.90
56725;DHT22;42608;52.776;6.968;2022-12-29T16:41:52;9.00;99.90
56725;DHT22;42608;52.776;6.968;2022-12-29T16:49:25;9.00;99.90
56725;DHT22;42608;52.776;6.968;2022-12-29T16:51:51;8.90;99.90
56725;DHT22;42608;52.776;6.968;2022-12-29T16:54:23;8.90;99.90
56725;DHT22;42608;52.776;6.968;2022-12-29T16:56:49;8.90;99.90
56725;DHT22;42608;52.776;6.968;2022-12-29T16:59:23;8.90;99.90
56725;DHT22;42608;52.776;6.968;2022-12-29T17:01:49;8.80;99.90
56725;DHT22;42608;52.776;6.968;2022-12-29T17:04:14;8.80;99.90
56725;DHT22;42608;52.776;6.968;2022-12-29T17:06:40;8.80;99.90
56725;DHT22;42608;52.776;6.968;2022-12-29T17:09:19;8.80;99.90
56725;DHT22;42608;52.776;6.968;2022-12-29T17:11:46;8.80;99.90
56725;DHT22;42608;52.776;6.968;2022-12-29T17:17:05;8.80;99.90
56725;DHT22;42608;52.776;6.968;2022-12-29T17:19:35;8.80;99.90
56725;DHT22;42608;52.776;6.968;2022-12-29T17:22:01;8.80;99.90
56725;DHT22;42608;52.776;6.968;2022-12-29T17:24:27;8.80;99.90
56725;DHT22;42608;52.776;6.968;2022-12-29T17:26:54;8.70;99.90
56725;DHT22;42608;52.776;6.968;2022-12-29T17:31:49;8.70;99.90
56725;DHT22;42608;52.776;6.968;2022-12-29T17:34:14;8.70;99.90
56725;DHT22;42608;52.776;6.968;2022-12-29T17:36:40;8.70;99.90
56725;DHT22;42608;52.776;6.968;2022-12-29T17:39:06;8.70;99.90
56725;DHT22;42608;52.776;6.968;2022-12-29T17:41:33;8.70;99.90
56725;DHT22;42608;52.776;6.968;2022-12-29T17:44:00;8.70;99.90
56725;DHT22;42608;52.776;6.968;2022-12-29T17:46:26;8.70;99.90
56725;DHT22;42608;52.776;6.968;2022-12-29T17:48:51;8.70;99.90
56725;DHT22;42608;52.776;6.968;2022-12-29T17:51:17;8.70;99.90
56725;DHT22;42608;52.776;6.968;2022-12-29T17:53:43;8.80;99.90